sensor_id;sensor_type;location;lat;lon;timestamp;P1;durP1;ratioP1;P2;durP2;ratioP2
19800;SDS011;10060;48.274;12.214;2024-03-02T00:01:23;70.63;;;32.97;;
19800;SDS011;10060;48.274;12.214;2024-03-02T00:04:25;73.43;;;33.47;;
19800;SDS011;10060;48.274;12.214;2024-03-02T00:07:28;73.63;;;33.43;;
19800;SDS011;10060;48.274;12.214;2024-03-02T00:10:35;78.57;;;34.17;;
19800;SDS011;10060;48.274;12.214;2024-03-02T00:13:39;77.97;;;34.80;;
19800;SDS011;10060;48.274;12.214;2024-03-02T00:16:41;71.93;;;34.63;;
19800;SDS011;10060;48.274;12.214;2024-03-02T00:19:44;96.40;;;34.73;;
19800;SDS011;10060;48.274;12.214;2024-03-02T00:22:47;68.67;;;33.93;;
19800;SDS011;10060;48.274;12.214;2024-03-02T00:25:50;77.90;;;35.17;;
19800;SDS011;10060;48.274;12.214;2024-03-02T00:28:54;77.30;;;35.13;;
19800;SDS011;10060;48.274;12.214;2024-03-02T00:31:57;95.43;;;34.40;;
19800;SDS011;10060;48.274;12.214;2024-03-02T00:34:59;64.40;;;32.73;;
19800;SDS011;10060;48.274;12.214;2024-03-02T00:38:04;58.93;;;32.33;;
19800;SDS011;10060;48.274;12.214;2024-03-02T00:41:07;64.17;;;32.90;;
19800;SDS011;10060;48.274;12.214;2024-03-02T00:44:09;71.03;;;30.97;;
19800;SDS011;10060;48.274;12.214;2024-03-02T00:47:11;60.73;;;32.47;;
19800;SDS011;10060;48.274;12.214;2024-03-02T00:50:13;83.73;;;32.03;;
19800;SDS011;10060;48.274;12.214;2024-03-02T00:53:17;64.93;;;30.77;;
19800;SDS011;10060;48.274;12.214;2024-03-02T00:56:22;158.23;;;34.80;;
19800;SDS011;10060;48.274;12.214;2024-03-02T00:59:24;110.03;;;31.03;;
19800;SDS011;10060;48.274;12.214;2024-03-02T01:02:26;174.30;;;34.67;;
19800;SDS011;10060;48.274;12.214;2024-03-02T01:05:29;137.33;;;32.13;;
19800;SDS011;10060;48.274;12.214;2024-03-02T01:08:32;136.70;;;30.57;;
19800;SDS011;10060;48.274;12.214;2024-03-02T01:11:34;203.63;;;33.27;;
19800;SDS011;10060;48.274;12.214;2024-03-02T01:14:36;133.13;;;29.13;;
19800;SDS011;10060;48.274;12.214;2024-03-02T01:17:39;97.87;;;28.03;;
19800;SDS011;10060;48.274;12.214;2024-03-02T01:20:41;128.77;;;29.63;;
19800;SDS011;10060;48.274;12.214;2024-03-02T01:23:44;88.03;;;27.33;;
19800;SDS011;10060;48.274;12.214;2024-03-02T01:26:46;86.60;;;27.40;;
19800;SDS011;10060;48.274;12.214;2024-03-02T01:29:48;56.37;;;26.70;;
19800;SDS011;10060;48.274;12.214;2024-03-02T01:32:51;57.33;;;27.40;;
19800;SDS011;10060;48.274;12.214;2024-03-02T01:35:53;75.40;;;26.53;;
19800;SDS011;10060;48.274;12.214;2024-03-02T01:38:56;62.90;;;27.20;;
19800;SDS011;10060;48.274;12.214;2024-03-02T01:41:58;60.30;;;27.73;;
19800;SDS011;10060;48.274;12.214;2024-03-02T01:45:00;71.23;;;29.17;;
19800;SDS011;10060;48.274;12.214;2024-03-02T01:48:04;74.87;;;30.03;;
19800;SDS011;10060;48.274;12.214;2024-03-02T01:51:06;121.67;;;33.27;;
19800;SDS011;10060;48.274;12.214;2024-03-02T01:54:10;111.10;;;32.07;;
19800;SDS011;10060;48.274;12.214;2024-03-02T01:57:12;107.00;;;32.53;;
19800;SDS011;10060;48.274;12.214;2024-03-02T02:00:14;105.33;;;32.00;;
19800;SDS011;10060;48.274;12.214;2024-03-02T02:03:17;104.83;;;32.07;;
19800;SDS011;10060;48.274;12.214;2024-03-02T02:06:19;118.57;;;34.10;;
19800;SDS011;10060;48.274;12.214;2024-03-02T02:09:22;83.10;;;30.97;;
19800;SDS011;10060;48.274;12.214;2024-03-02T02:12:25;98.03;;;32.07;;
19800;SDS011;10060;48.274;12.214;2024-03-02T02:15:27;60.37;;;30.37;;
19800;SDS011;10060;48.274;12.214;2024-03-02T02:18:30;98.27;;;32.83;;
19800;SDS011;10060;48.274;12.214;2024-03-02T02:21:34;101.10;;;32.00;;
19800;SDS011;10060;48.274;12.214;2024-03-02T02:24:36;84.40;;;30.37;;
19800;SDS011;10060;48.274;12.214;2024-03-02T02:27:41;96.40;;;31.53;;
19800;SDS011;10060;48.274;12.214;2024-03-02T02:30:43;91.33;;;31.53;;
19800;SDS011;10060;48.274;12.214;2024-03-02T02:33:45;85.97;;;29.60;;
19800;SDS011;10060;48.274;12.214;2024-03-02T02:36:49;70.73;;;29.53;;
19800;SDS011;10060;48.274;12.214;2024-03-02T02:39:51;47.70;;;28.30;;
19800;SDS011;10060;48.274;12.214;2024-03-02T02:42:53;81.47;;;30.93;;
19800;SDS011;10060;48.274;12.214;2024-03-02T02:45:55;74.73;;;28.93;;
19800;SDS011;10060;48.274;12.214;2024-03-02T02:48:57;76.90;;;29.23;;
19800;SDS011;10060;48.274;12.214;2024-03-02T02:52:01;73.90;;;29.17;;
19800;SDS011;10060;48.274;12.214;2024-03-02T02:55:03;75.33;;;29.07;;
19800;SDS011;10060;48.274;12.214;2024-03-02T02:58:05;71.27;;;29.57;;
19800;SDS011;10060;48.274;12.214;2024-03-02T03:01:07;73.93;;;28.83;;
19800;SDS011;10060;48.274;12.214;2024-03-02T03:04:09;74.17;;;27.10;;
19800;SDS011;10060;48.274;12.214;2024-03-02T03:07:13;73.73;;;27.90;;
19800;SDS011;10060;48.274;12.214;2024-03-02T03:10:15;83.23;;;28.10;;
19800;SDS011;10060;48.274;12.214;2024-03-02T03:13:17;73.40;;;26.90;;
19800;SDS011;10060;48.274;12.214;2024-03-02T03:16:20;75.67;;;26.43;;
19800;SDS011;10060;48.274;12.214;2024-03-02T03:19:22;64.03;;;25.83;;
19800;SDS011;10060;48.274;12.214;2024-03-02T03:22:25;69.97;;;25.80;;
19800;SDS011;10060;48.274;12.214;2024-03-02T03:25:27;69.57;;;25.80;;
19800;SDS011;10060;48.274;12.214;2024-03-02T03:28:29;61.73;;;25.63;;
19800;SDS011;10060;48.274;12.214;2024-03-02T03:31:32;47.97;;;25.00;;
19800;SDS011;10060;48.274;12.214;2024-03-02T03:34:34;51.87;;;25.80;;
19800;SDS011;10060;48.274;12.214;2024-03-02T03:37:37;58.30;;;25.53;;
19800;SDS011;10060;48.274;12.214;2024-03-02T03:40:39;47.20;;;24.07;;
19800;SDS011;10060;48.274;12.214;2024-03-02T03:43:41;70.23;;;25.97;;
19800;SDS011;10060;48.274;12.214;2024-03-02T03:46:43;56.57;;;23.77;;
19800;SDS011;10060;48.274;12.214;2024-03-02T03:49:46;65.03;;;24.53;;
19800;SDS011;10060;48.274;12.214;2024-03-02T03:52:49;62.00;;;25.97;;
19800;SDS011;10060;48.274;12.214;2024-03-02T03:55:51;63.07;;;24.37;;
19800;SDS011;10060;48.274;12.214;2024-03-02T03:58:53;78.13;;;25.17;;
19800;SDS011;10060;48.274;12.214;2024-03-02T04:01:55;57.17;;;25.70;;
19800;SDS011;10060;48.274;12.214;2024-03-02T04:04:57;51.20;;;24.57;;
19800;SDS011;10060;48.274;12.214;2024-03-02T04:08:01;45.23;;;25.00;;
19800;SDS011;10060;48.274;12.214;2024-03-02T04:11:03;45.70;;;25.13;;
19800;SDS011;10060;48.274;12.214;2024-03-02T04:14:07;44.17;;;25.37;;
19800;SDS011;10060;48.274;12.214;2024-03-02T04:17:10;47.03;;;24.87;;
19800;SDS011;10060;48.274;12.214;2024-03-02T04:20:13;43.93;;;23.33;;
19800;SDS011;10060;48.274;12.214;2024-03-02T04:23:16;38.57;;;22.87;;
19800;SDS011;10060;48.274;12.214;2024-03-02T04:26:18;39.63;;;23.60;;
19800;SDS011;10060;48.274;12.214;2024-03-02T04:29:22;40.13;;;23.87;;
19800;SDS011;10060;48.274;12.214;2024-03-02T04:32:24;39.70;;;23.33;;
19800;SDS011;10060;48.274;12.214;2024-03-02T04:35:26;36.63;;;22.13;;
19800;SDS011;10060;48.274;12.214;2024-03-02T04:38:30;36.63;;;21.97;;
19800;SDS011;10060;48.274;12.214;2024-03-02T04:41:32;57.87;;;23.47;;
19800;SDS011;10060;48.274;12.214;2024-03-02T04:44:34;37.23;;;22.50;;
19800;SDS011;10060;48.274;12.214;2024-03-02T04:47:37;47.80;;;23.83;;
19800;SDS011;10060;48.274;12.214;2024-03-02T04:50:39;36.20;;;23.33;;
19800;SDS011;10060;48.274;12.214;2024-03-02T04:53:42;43.23;;;23.87;;
19800;SDS011;10060;48.274;12.214;2024-03-02T04:56:44;37.13;;;23.20;;
19800;SDS011;10060;48.274;12.214;2024-03-02T04:59:49;40.30;;;24.77;;
19800;SDS011;10060;48.274;12.214;2024-03-02T05:02:51;48.63;;;24.50;;
19800;SDS011;10060;48.274;12.214;2024-03-02T05:05:53;68.80;;;24.57;;
19800;SDS011;10060;48.274;12.214;2024-03-02T05:08:57;55.60;;;22.63;;
19800;SDS011;10060;48.274;12.214;2024-03-02T05:11:59;46.67;;;23.87;;
19800;SDS011;10060;48.274;12.214;2024-03-02T05:15:23;37.17;;;22.10;;
19800;SDS011;10060;48.274;12.214;2024-03-02T05:18:25;38.80;;;22.33;;
19800;SDS011;10060;48.274;12.214;2024-03-02T05:21:27;53.50;;;23.73;;
19800;SDS011;10060;48.274;12.214;2024-03-02T05:24:30;53.90;;;23.27;;
19800;SDS011;10060;48.274;12.214;2024-03-02T05:27:32;40.87;;;23.10;;
19800;SDS011;10060;48.274;12.214;2024-03-02T05:30:35;45.67;;;23.37;;
19800;SDS011;10060;48.274;12.214;2024-03-02T05:33:37;45.73;;;23.83;;
19800;SDS011;10060;48.274;12.214;2024-03-02T05:36:39;58.60;;;23.83;;
19800;SDS011;10060;48.274;12.214;2024-03-02T05:39:42;40.07;;;22.23;;
19800;SDS011;10060;48.274;12.214;2024-03-02T05:42:45;47.90;;;24.10;;
19800;SDS011;10060;48.274;12.214;2024-03-02T05:45:47;38.67;;;23.50;;
19800;SDS011;10060;48.274;12.214;2024-03-02T05:48:49;40.07;;;23.80;;
19800;SDS011;10060;48.274;12.214;2024-03-02T05:51:51;39.73;;;22.83;;
19800;SDS011;10060;48.274;12.214;2024-03-02T05:54:55;40.00;;;23.63;;
19800;SDS011;10060;48.274;12.214;2024-03-02T05:57:57;39.00;;;23.60;;
19800;SDS011;10060;48.274;12.214;2024-03-02T06:01:15;40.70;;;23.43;;
19800;SDS011;10060;48.274;12.214;2024-03-02T06:04:18;39.80;;;23.47;;
19800;SDS011;10060;48.274;12.214;2024-03-02T06:07:20;39.43;;;24.07;;
19800;SDS011;10060;48.274;12.214;2024-03-02T06:10:24;42.80;;;24.10;;
19800;SDS011;10060;48.274;12.214;2024-03-02T06:13:26;38.60;;;23.77;;
19800;SDS011;10060;48.274;12.214;2024-03-02T06:16:28;42.13;;;23.23;;
19800;SDS011;10060;48.274;12.214;2024-03-02T06:19:30;40.60;;;23.97;;
19800;SDS011;10060;48.274;12.214;2024-03-02T06:22:33;41.57;;;24.47;;
19800;SDS011;10060;48.274;12.214;2024-03-02T06:25:36;43.70;;;24.37;;
19800;SDS011;10060;48.274;12.214;2024-03-02T06:28:38;41.63;;;23.97;;
19800;SDS011;10060;48.274;12.214;2024-03-02T06:31:40;37.97;;;22.70;;
19800;SDS011;10060;48.274;12.214;2024-03-02T06:34:42;41.13;;;23.70;;
19800;SDS011;10060;48.274;12.214;2024-03-02T06:37:44;43.80;;;23.13;;
19800;SDS011;10060;48.274;12.214;2024-03-02T06:40:48;41.57;;;24.47;;
19800;SDS011;10060;48.274;12.214;2024-03-02T06:43:50;40.93;;;23.97;;
19800;SDS011;10060;48.274;12.214;2024-03-02T06:46:59;44.20;;;25.77;;
19800;SDS011;10060;48.274;12.214;2024-03-02T06:50:01;43.27;;;24.73;;
19800;SDS011;10060;48.274;12.214;2024-03-02T06:53:03;44.20;;;26.17;;
19800;SDS011;10060;48.274;12.214;2024-03-02T06:56:07;46.23;;;26.47;;
19800;SDS011;10060;48.274;12.214;2024-03-02T06:59:10;48.53;;;26.20;;
19800;SDS011;10060;48.274;12.214;2024-03-02T07:02:12;43.63;;;25.53;;
19800;SDS011;10060;48.274;12.214;2024-03-02T07:05:14;45.17;;;24.60;;
19800;SDS011;10060;48.274;12.214;2024-03-02T07:08:16;48.70;;;26.03;;
19800;SDS011;10060;48.274;12.214;2024-03-02T07:11:19;48.37;;;25.63;;
19800;SDS011;10060;48.274;12.214;2024-03-02T07:14:22;51.90;;;24.73;;
19800;SDS011;10060;48.274;12.214;2024-03-02T07:17:44;48.30;;;25.30;;
19800;SDS011;10060;48.274;12.214;2024-03-02T07:20:46;48.43;;;25.40;;
19800;SDS011;10060;48.274;12.214;2024-03-02T07:23:49;48.10;;;25.47;;
19800;SDS011;10060;48.274;12.214;2024-03-02T07:26:53;46.43;;;23.53;;
19800;SDS011;10060;48.274;12.214;2024-03-02T07:29:55;48.70;;;24.73;;
19800;SDS011;10060;48.274;12.214;2024-03-02T07:32:57;67.33;;;30.93;;
19800;SDS011;10060;48.274;12.214;2024-03-02T07:36:00;82.07;;;34.10;;
19800;SDS011;10060;48.274;12.214;2024-03-02T07:39:02;80.67;;;34.67;;
19800;SDS011;10060;48.274;12.214;2024-03-02T07:42:06;65.30;;;29.87;;
19800;SDS011;10060;48.274;12.214;2024-03-02T07:45:08;57.43;;;29.10;;
19800;SDS011;10060;48.274;12.214;2024-03-02T07:48:11;63.97;;;30.70;;
19800;SDS011;10060;48.274;12.214;2024-03-02T07:51:13;56.83;;;27.87;;
19800;SDS011;10060;48.274;12.214;2024-03-02T07:54:15;59.20;;;27.23;;
19800;SDS011;10060;48.274;12.214;2024-03-02T07:57:18;55.33;;;27.10;;
19800;SDS011;10060;48.274;12.214;2024-03-02T08:00:21;57.67;;;27.73;;
19800;SDS011;10060;48.274;12.214;2024-03-02T08:03:23;66.00;;;28.90;;
19800;SDS011;10060;48.274;12.214;2024-03-02T08:06:25;60.63;;;28.30;;
19800;SDS011;10060;48.274;12.214;2024-03-02T08:09:28;59.60;;;28.17;;
19800;SDS011;10060;48.274;12.214;2024-03-02T08:12:31;68.90;;;30.00;;
19800;SDS011;10060;48.274;12.214;2024-03-02T08:15:33;77.17;;;28.00;;
19800;SDS011;10060;48.274;12.214;2024-03-02T08:18:35;63.90;;;28.40;;
19800;SDS011;10060;48.274;12.214;2024-03-02T08:21:37;65.43;;;30.23;;
19800;SDS011;10060;48.274;12.214;2024-03-02T08:24:40;59.97;;;27.63;;
19800;SDS011;10060;48.274;12.214;2024-03-02T08:27:43;63.20;;;26.90;;
19800;SDS011;10060;48.274;12.214;2024-03-02T08:30:45;61.63;;;27.97;;
19800;SDS011;10060;48.274;12.214;2024-03-02T08:33:47;59.63;;;27.07;;
19800;SDS011;10060;48.274;12.214;2024-03-02T08:36:50;66.83;;;27.90;;
19800;SDS011;10060;48.274;12.214;2024-03-02T08:39:52;64.37;;;28.17;;
19800;SDS011;10060;48.274;12.214;2024-03-02T08:42:55;58.60;;;28.87;;
19800;SDS011;10060;48.274;12.214;2024-03-02T08:45:57;68.40;;;29.13;;
19800;SDS011;10060;48.274;12.214;2024-03-02T08:48:59;61.87;;;29.03;;
19800;SDS011;10060;48.274;12.214;2024-03-02T08:52:01;66.03;;;28.17;;
19800;SDS011;10060;48.274;12.214;2024-03-02T08:55:04;64.80;;;28.80;;
19800;SDS011;10060;48.274;12.214;2024-03-02T08:58:08;75.70;;;27.77;;
19800;SDS011;10060;48.274;12.214;2024-03-02T09:01:10;69.90;;;28.90;;
19800;SDS011;10060;48.274;12.214;2024-03-02T09:04:12;64.37;;;28.83;;
19800;SDS011;10060;48.274;12.214;2024-03-02T09:07:15;70.13;;;29.17;;
19800;SDS011;10060;48.274;12.214;2024-03-02T09:10:17;63.60;;;29.37;;
19800;SDS011;10060;48.274;12.214;2024-03-02T09:13:20;63.23;;;30.10;;
19800;SDS011;10060;48.274;12.214;2024-03-02T09:16:23;66.27;;;28.27;;
19800;SDS011;10060;48.274;12.214;2024-03-02T09:19:30;63.87;;;29.53;;
19800;SDS011;10060;48.274;12.214;2024-03-02T09:22:32;70.27;;;29.63;;
19800;SDS011;10060;48.274;12.214;2024-03-02T09:25:34;69.83;;;29.13;;
19800;SDS011;10060;48.274;12.214;2024-03-02T09:28:38;72.37;;;30.43;;
19800;SDS011;10060;48.274;12.214;2024-03-02T09:31:44;72.33;;;29.80;;
19800;SDS011;10060;48.274;12.214;2024-03-02T09:34:46;71.53;;;31.00;;
19800;SDS011;10060;48.274;12.214;2024-03-02T09:37:49;76.37;;;33.40;;
19800;SDS011;10060;48.274;12.214;2024-03-02T09:40:51;75.80;;;31.97;;
19800;SDS011;10060;48.274;12.214;2024-03-02T09:43:55;79.13;;;32.47;;
19800;SDS011;10060;48.274;12.214;2024-03-02T09:46:58;79.30;;;33.60;;
19800;SDS011;10060;48.274;12.214;2024-03-02T09:50:00;79.57;;;32.40;;
19800;SDS011;10060;48.274;12.214;2024-03-02T09:53:02;81.13;;;33.90;;
19800;SDS011;10060;48.274;12.214;2024-03-02T09:56:04;77.77;;;33.87;;
19800;SDS011;10060;48.274;12.214;2024-03-02T09:59:08;73.60;;;31.43;;
19800;SDS011;10060;48.274;12.214;2024-03-02T10:02:11;72.20;;;32.07;;
19800;SDS011;10060;48.274;12.214;2024-03-02T10:05:13;76.47;;;32.33;;
19800;SDS011;10060;48.274;12.214;2024-03-02T10:08:15;70.83;;;31.27;;
19800;SDS011;10060;48.274;12.214;2024-03-02T10:11:26;69.87;;;31.33;;
19800;SDS011;10060;48.274;12.214;2024-03-02T10:14:30;76.90;;;32.33;;
19800;SDS011;10060;48.274;12.214;2024-03-02T10:17:33;70.63;;;31.33;;
19800;SDS011;10060;48.274;12.214;2024-03-02T10:20:35;73.97;;;32.30;;
19800;SDS011;10060;48.274;12.214;2024-03-02T10:23:37;68.57;;;30.27;;
19800;SDS011;10060;48.274;12.214;2024-03-02T10:26:39;77.97;;;33.13;;
19800;SDS011;10060;48.274;12.214;2024-03-02T10:29:45;72.90;;;32.57;;
19800;SDS011;10060;48.274;12.214;2024-03-02T10:32:49;72.53;;;32.90;;
19800;SDS011;10060;48.274;12.214;2024-03-02T10:35:51;82.63;;;34.33;;
19800;SDS011;10060;48.274;12.214;2024-03-02T10:38:53;81.03;;;34.67;;
19800;SDS011;10060;48.274;12.214;2024-03-02T10:41:59;80.17;;;34.90;;
19800;SDS011;10060;48.274;12.214;2024-03-02T10:45:05;78.57;;;35.50;;
19800;SDS011;10060;48.274;12.214;2024-03-02T10:48:08;84.53;;;36.17;;
19800;SDS011;10060;48.274;12.214;2024-03-02T10:51:10;79.60;;;34.97;;
19800;SDS011;10060;48.274;12.214;2024-03-02T10:54:12;73.20;;;32.33;;
19800;SDS011;10060;48.274;12.214;2024-03-02T10:57:14;70.40;;;34.10;;
19800;SDS011;10060;48.274;12.214;2024-03-02T11:00:20;74.60;;;33.80;;
19800;SDS011;10060;48.274;12.214;2024-03-02T11:03:25;70.77;;;33.50;;
19800;SDS011;10060;48.274;12.214;2024-03-02T11:06:28;65.67;;;31.87;;
19800;SDS011;10060;48.274;12.214;2024-03-02T11:09:33;65.10;;;31.53;;
19800;SDS011;10060;48.274;12.214;2024-03-02T11:12:36;74.07;;;32.40;;
19800;SDS011;10060;48.274;12.214;2024-03-02T11:15:43;76.77;;;33.43;;
19800;SDS011;10060;48.274;12.214;2024-03-02T11:18:45;69.07;;;33.87;;
19800;SDS011;10060;48.274;12.214;2024-03-02T11:21:49;75.17;;;34.33;;
19800;SDS011;10060;48.274;12.214;2024-03-02T11:24:52;74.90;;;34.00;;
19800;SDS011;10060;48.274;12.214;2024-03-02T11:28:00;75.20;;;34.73;;
19800;SDS011;10060;48.274;12.214;2024-03-02T11:31:04;70.53;;;33.97;;
19800;SDS011;10060;48.274;12.214;2024-03-02T11:34:16;80.53;;;35.27;;
19800;SDS011;10060;48.274;12.214;2024-03-02T11:37:19;74.93;;;33.97;;
19800;SDS011;10060;48.274;12.214;2024-03-02T11:40:22;67.60;;;33.57;;
19800;SDS011;10060;48.274;12.214;2024-03-02T11:43:25;77.70;;;35.07;;
19800;SDS011;10060;48.274;12.214;2024-03-02T11:46:29;67.60;;;34.23;;
19800;SDS011;10060;48.274;12.214;2024-03-02T11:49:38;74.87;;;36.13;;
19800;SDS011;10060;48.274;12.214;2024-03-02T11:52:40;72.80;;;35.53;;
19800;SDS011;10060;48.274;12.214;2024-03-02T11:55:43;74.97;;;37.90;;
19800;SDS011;10060;48.274;12.214;2024-03-02T11:58:46;71.80;;;36.43;;
19800;SDS011;10060;48.274;12.214;2024-03-02T12:01:52;76.37;;;36.23;;
19800;SDS011;10060;48.274;12.214;2024-03-02T12:04:55;76.97;;;37.30;;
19800;SDS011;10060;48.274;12.214;2024-03-02T12:08:00;70.53;;;36.50;;
19800;SDS011;10060;48.274;12.214;2024-03-02T12:11:02;70.20;;;35.80;;
19800;SDS011;10060;48.274;12.214;2024-03-02T12:14:10;68.63;;;37.00;;
19800;SDS011;10060;48.274;12.214;2024-03-02T12:17:15;72.23;;;37.70;;
19800;SDS011;10060;48.274;12.214;2024-03-02T12:20:17;68.27;;;37.20;;
19800;SDS011;10060;48.274;12.214;2024-03-02T12:23:19;68.80;;;35.77;;
19800;SDS011;10060;48.274;12.214;2024-03-02T12:26:22;62.23;;;33.27;;
19800;SDS011;10060;48.274;12.214;2024-03-02T12:29:24;61.43;;;33.07;;
19800;SDS011;10060;48.274;12.214;2024-03-02T12:32:28;60.70;;;33.50;;
19800;SDS011;10060;48.274;12.214;2024-03-02T12:35:30;58.23;;;31.33;;
19800;SDS011;10060;48.274;12.214;2024-03-02T12:38:32;57.63;;;31.27;;
19800;SDS011;10060;48.274;12.214;2024-03-02T12:41:35;63.23;;;32.13;;
19800;SDS011;10060;48.274;12.214;2024-03-02T12:44:39;56.33;;;31.83;;
19800;SDS011;10060;48.274;12.214;2024-03-02T12:47:42;54.40;;;30.73;;
19800;SDS011;10060;48.274;12.214;2024-03-02T12:50:44;59.43;;;32.27;;
19800;SDS011;10060;48.274;12.214;2024-03-02T12:53:52;58.20;;;32.47;;
19800;SDS011;10060;48.274;12.214;2024-03-02T12:56:54;55.80;;;30.07;;
19800;SDS011;10060;48.274;12.214;2024-03-02T12:59:58;48.00;;;28.67;;
19800;SDS011;10060;48.274;12.214;2024-03-02T13:03:01;54.33;;;30.33;;
19800;SDS011;10060;48.274;12.214;2024-03-02T13:06:04;51.67;;;28.73;;
19800;SDS011;10060;48.274;12.214;2024-03-02T13:09:06;46.97;;;27.63;;
19800;SDS011;10060;48.274;12.214;2024-03-02T13:12:14;51.27;;;28.33;;
19800;SDS011;10060;48.274;12.214;2024-03-02T13:15:17;49.37;;;28.67;;
19800;SDS011;10060;48.274;12.214;2024-03-02T13:18:21;47.17;;;26.57;;
19800;SDS011;10060;48.274;12.214;2024-03-02T13:21:23;43.57;;;26.00;;
19800;SDS011;10060;48.274;12.214;2024-03-02T13:24:25;41.90;;;26.40;;
19800;SDS011;10060;48.274;12.214;2024-03-02T13:27:28;44.13;;;26.23;;
19800;SDS011;10060;48.274;12.214;2024-03-02T13:30:31;41.33;;;24.03;;
19800;SDS011;10060;48.274;12.214;2024-03-02T13:33:34;44.03;;;25.93;;
19800;SDS011;10060;48.274;12.214;2024-03-02T13:36:37;43.60;;;25.10;;
19800;SDS011;10060;48.274;12.214;2024-03-02T13:39:39;48.83;;;24.53;;
19800;SDS011;10060;48.274;12.214;2024-03-02T13:42:42;47.43;;;27.47;;
19800;SDS011;10060;48.274;12.214;2024-03-02T13:45:44;47.00;;;27.13;;
19800;SDS011;10060;48.274;12.214;2024-03-02T13:48:47;48.63;;;26.93;;
19800;SDS011;10060;48.274;12.214;2024-03-02T13:51:51;45.40;;;26.00;;
19800;SDS011;10060;48.274;12.214;2024-03-02T13:54:53;48.97;;;27.00;;
19800;SDS011;10060;48.274;12.214;2024-03-02T13:57:55;45.97;;;26.63;;
19800;SDS011;10060;48.274;12.214;2024-03-02T14:00:58;43.33;;;24.47;;
19800;SDS011;10060;48.274;12.214;2024-03-02T14:04:03;43.00;;;23.90;;
19800;SDS011;10060;48.274;12.214;2024-03-02T14:07:05;46.63;;;24.93;;
19800;SDS011;10060;48.274;12.214;2024-03-02T14:10:08;45.00;;;25.00;;
19800;SDS011;10060;48.274;12.214;2024-03-02T14:13:10;44.30;;;23.70;;
19800;SDS011;10060;48.274;12.214;2024-03-02T14:16:12;47.43;;;25.87;;
19800;SDS011;10060;48.274;12.214;2024-03-02T14:19:16;41.13;;;24.10;;
19800;SDS011;10060;48.274;12.214;2024-03-02T14:22:18;41.13;;;23.23;;
19800;SDS011;10060;48.274;12.214;2024-03-02T14:25:20;45.10;;;24.17;;
19800;SDS011;10060;48.274;12.214;2024-03-02T14:28:22;42.87;;;23.00;;
19800;SDS011;10060;48.274;12.214;2024-03-02T14:31:24;43.57;;;23.27;;
19800;SDS011;10060;48.274;12.214;2024-03-02T14:34:27;41.20;;;23.70;;
19800;SDS011;10060;48.274;12.214;2024-03-02T14:37:30;41.03;;;22.60;;
19800;SDS011;10060;48.274;12.214;2024-03-02T14:40:32;40.87;;;22.37;;
19800;SDS011;10060;48.274;12.214;2024-03-02T14:43:34;36.00;;;21.73;;
19800;SDS011;10060;48.274;12.214;2024-03-02T14:46:37;40.70;;;21.97;;
19800;SDS011;10060;48.274;12.214;2024-03-02T14:49:40;39.67;;;20.80;;
19800;SDS011;10060;48.274;12.214;2024-03-02T14:52:43;39.60;;;21.80;;
19800;SDS011;10060;48.274;12.214;2024-03-02T14:55:46;43.07;;;22.07;;
19800;SDS011;10060;48.274;12.214;2024-03-02T14:58:48;36.57;;;21.10;;
19800;SDS011;10060;48.274;12.214;2024-03-02T15:01:51;39.53;;;21.43;;
19800;SDS011;10060;48.274;12.214;2024-03-02T15:04:54;39.70;;;21.23;;
19800;SDS011;10060;48.274;12.214;2024-03-02T15:07:56;44.03;;;23.03;;
19800;SDS011;10060;48.274;12.214;2024-03-02T15:10:59;39.63;;;21.77;;
19800;SDS011;10060;48.274;12.214;2024-03-02T15:14:02;41.13;;;22.43;;
19800;SDS011;10060;48.274;12.214;2024-03-02T15:17:04;41.03;;;22.93;;
19800;SDS011;10060;48.274;12.214;2024-03-02T15:20:08;42.37;;;21.93;;
19800;SDS011;10060;48.274;12.214;2024-03-02T15:23:10;42.03;;;21.17;;
19800;SDS011;10060;48.274;12.214;2024-03-02T15:26:12;41.00;;;21.47;;
19800;SDS011;10060;48.274;12.214;2024-03-02T15:29:15;40.27;;;21.70;;
19800;SDS011;10060;48.274;12.214;2024-03-02T15:32:17;37.23;;;20.87;;
19800;SDS011;10060;48.274;12.214;2024-03-02T15:35:20;34.67;;;19.60;;
19800;SDS011;10060;48.274;12.214;2024-03-02T15:38:22;38.87;;;20.70;;
19800;SDS011;10060;48.274;12.214;2024-03-02T15:41:24;39.27;;;21.57;;
19800;SDS011;10060;48.274;12.214;2024-03-02T15:44:26;39.77;;;21.97;;
19800;SDS011;10060;48.274;12.214;2024-03-02T15:47:28;39.07;;;21.93;;
19800;SDS011;10060;48.274;12.214;2024-03-02T15:50:32;38.17;;;21.80;;
19800;SDS011;10060;48.274;12.214;2024-03-02T15:53:36;36.87;;;20.10;;
19800;SDS011;10060;48.274;12.214;2024-03-02T15:56:38;38.43;;;20.17;;
19800;SDS011;10060;48.274;12.214;2024-03-02T15:59:41;39.47;;;21.07;;
19800;SDS011;10060;48.274;12.214;2024-03-02T16:02:43;36.67;;;20.43;;
19800;SDS011;10060;48.274;12.214;2024-03-02T16:05:46;32.67;;;19.17;;
19800;SDS011;10060;48.274;12.214;2024-03-02T16:08:48;38.30;;;21.63;;
19800;SDS011;10060;48.274;12.214;2024-03-02T16:11:51;31.80;;;19.63;;
19800;SDS011;10060;48.274;12.214;2024-03-02T16:14:53;39.77;;;21.00;;
19800;SDS011;10060;48.274;12.214;2024-03-02T16:17:55;36.97;;;19.83;;
19800;SDS011;10060;48.274;12.214;2024-03-02T16:21:00;34.80;;;20.63;;
19800;SDS011;10060;48.274;12.214;2024-03-02T16:24:04;38.80;;;22.87;;
19800;SDS011;10060;48.274;12.214;2024-03-02T16:27:06;37.17;;;20.77;;
19800;SDS011;10060;48.274;12.214;2024-03-02T16:30:09;41.00;;;22.80;;
19800;SDS011;10060;48.274;12.214;2024-03-02T16:33:11;39.30;;;22.10;;
19800;SDS011;10060;48.274;12.214;2024-03-02T16:36:15;36.50;;;20.57;;
19800;SDS011;10060;48.274;12.214;2024-03-02T16:39:18;38.30;;;21.40;;
19800;SDS011;10060;48.274;12.214;2024-03-02T16:42:20;40.27;;;21.30;;
19800;SDS011;10060;48.274;12.214;2024-03-02T16:45:24;41.23;;;22.37;;
19800;SDS011;10060;48.274;12.214;2024-03-02T16:48:26;42.37;;;22.50;;
19800;SDS011;10060;48.274;12.214;2024-03-02T16:51:29;41.87;;;22.00;;
19800;SDS011;10060;48.274;12.214;2024-03-02T16:54:31;42.97;;;23.03;;
19800;SDS011;10060;48.274;12.214;2024-03-02T16:57:33;41.27;;;22.90;;
19800;SDS011;10060;48.274;12.214;2024-03-02T17:00:36;40.70;;;22.97;;
19800;SDS011;10060;48.274;12.214;2024-03-02T17:03:39;43.43;;;23.00;;
19800;SDS011;10060;48.274;12.214;2024-03-02T17:06:42;42.23;;;23.77;;
19800;SDS011;10060;48.274;12.214;2024-03-02T17:09:46;45.20;;;24.90;;
19800;SDS011;10060;48.274;12.214;2024-03-02T17:12:48;47.53;;;24.17;;
19800;SDS011;10060;48.274;12.214;2024-03-02T17:15:50;48.83;;;25.03;;
19800;SDS011;10060;48.274;12.214;2024-03-02T17:18:52;46.63;;;25.20;;
19800;SDS011;10060;48.274;12.214;2024-03-02T17:21:55;42.20;;;24.20;;
19800;SDS011;10060;48.274;12.214;2024-03-02T17:24:57;54.10;;;26.90;;
19800;SDS011;10060;48.274;12.214;2024-03-02T17:31:16;56.70;;;28.00;;
19800;SDS011;10060;48.274;12.214;2024-03-02T17:34:18;46.33;;;24.73;;
19800;SDS011;10060;48.274;12.214;2024-03-02T17:37:22;49.90;;;26.63;;